Time;durP1;ratioP1;P1;durP2;ratioP2;P2;SDS_P1;SDS_P2;PMS_P1;PMS_P2;Temp;Humidity;BMP_temperature;BMP_pressure;BME280_temperature;BME280_humidity;BME280_pressure;Samples;Min_cycle;Max_cycle;Signal;HPM_P1;HPM_P2
2024/03/10 00:00:24;;;;;;;32.77;28.30;;;7.70;1.00;;;;;;4792942;29;20836;-49
2024/03/10 00:02:50;;;;;;;29.80;26.63;;;7.70;1.00;;;;;;4793011;29;20440;-45
2024/03/10 00:05:16;;;;;;;34.50;29.23;;;7.70;1.00;;;;;;4794616;29;20516;-53
2024/03/10 00:07:44;;;;;;;31.23;27.83;;;7.70;99.90;;;;;;4786192;29;20433;-45
2024/03/10 00:10:10;;;;;;;32.17;27.40;;;7.70;99.90;;;;;;4786476;29;20444;-47
2024/03/10 00:12:36;;;;;;;33.50;28.33;;;7.80;99.90;;;;;;4786542;29;20498;-47
2024/03/10 00:15:04;;;;;;;30.27;27.07;;;7.80;99.90;;;;;;4793825;29;20432;-47
2024/03/10 00:17:30;;;;;;;31.37;28.17;;;7.80;99.90;;;;;;4787213;29;20451;-45
2024/03/10 00:19:55;;;;;;;34.83;28.83;;;7.80;99.90;;;;;;4787055;29;20480;-44
2024/03/10 00:22:21;;;;;;;32.77;27.03;;;7.80;99.90;;;;;;4782872;29;20820;-46
2024/03/10 00:24:47;;;;;;;32.50;27.57;;;7.80;99.90;;;;;;4792889;29;20205;-45
2024/03/10 00:27:12;;;;;;;31.60;28.17;;;7.80;93.70;;;;;;4783123;29;20195;-44
2024/03/10 00:29:38;;;;;;;31.13;27.70;;;7.80;35.00;;;;;;4791857;29;20301;-50
2024/03/10 00:32:07;;;;;;;31.67;27.30;;;7.80;8.40;;;;;;4791720;29;20718;-48
2024/03/10 00:34:37;;;;;;;32.13;28.40;;;7.80;1.00;;;;;;4783134;29;20241;-48
2024/03/10 00:37:05;;;;;;;31.60;28.20;;;7.80;1.00;;;;;;4791101;29;20546;-47
2024/03/10 00:39:31;;;;;;;30.63;27.47;;;7.90;1.00;;;;;;4793677;29;20481;-46
2024/03/10 00:41:57;;;;;;;28.90;25.87;;;7.90;1.00;;;;;;4783714;29;20900;-47
2024/03/10 00:44:22;;;;;;;31.93;28.30;;;7.90;1.00;;;;;;4791477;29;20491;-52
2024/03/10 00:46:48;;;;;;;30.10;26.83;;;7.80;1.00;;;;;;4792997;29;20200;-45
2024/03/10 00:49:14;;;;;;;31.33;26.67;;;7.90;1.00;;;;;;4778020;29;20662;-48
2024/03/10 00:51:41;;;;;;;33.47;28.60;;;7.90;1.00;;;;;;4790404;29;20199;-48
2024/03/10 00:54:09;;;;;;;36.40;29.40;;;7.90;1.00;;;;;;4779114;29;20442;-47
2024/03/10 00:56:35;;;;;;;37.23;31.03;;;7.80;1.00;;;;;;4783004;29;21169;-62
2024/03/10 00:59:01;;;;;;;37.60;32.70;;;7.80;1.00;;;;;;4788460;29;20420;-62
2024/03/10 01:01:27;;;;;;;36.60;30.97;;;7.80;1.00;;;;;;4789399;29;20978;-45
2024/03/10 01:03:53;;;;;;;39.10;32.57;;;7.80;1.00;;;;;;4788038;29;20198;-50
2024/03/10 01:06:19;;;;;;;36.87;32.40;;;7.80;1.00;;;;;;4785900;29;20992;-62
2024/03/10 01:08:44;;;;;;;37.83;30.20;;;7.80;1.00;;;;;;4785892;29;20724;-64
2024/03/10 01:11:11;;;;;;;36.27;30.90;;;7.80;1.00;;;;;;4792702;29;20205;-64
2024/03/10 01:13:37;;;;;;;38.90;31.50;;;7.70;1.00;;;;;;4786645;29;20348;-62
2024/03/10 01:16:03;;;;;;;35.17;30.90;;;7.80;31.40;;;;;;4786639;29;20443;-62
2024/03/10 01:18:29;;;;;;;33.70;27.67;;;7.70;69.70;;;;;;4790100;29;20436;-63
2024/03/10 01:20:55;;;;;;;34.40;28.13;;;7.70;99.90;;;;;;4788368;29;20480;-62
2024/03/10 01:23:21;;;;;;;31.90;28.20;;;7.80;99.90;;;;;;4788464;29;20533;-63
2024/03/10 01:25:46;;;;;;;33.50;28.70;;;7.70;99.90;;;;;;4793418;29;20194;-62
2024/03/10 01:28:12;;;;;;;30.00;26.70;;;7.70;99.90;;;;;;4781231;29;20230;-62
2024/03/10 01:30:40;;;;;;;37.20;29.33;;;7.70;99.90;;;;;;4784624;29;20207;-58
2024/03/10 01:33:06;;;;;;;31.63;26.77;;;7.70;99.90;;;;;;4789822;29;20270;-62
2024/03/10 01:35:32;;;;;;;32.10;26.87;;;7.80;99.90;;;;;;4795638;29;20506;-62
2024/03/10 01:37:57;;;;;;;31.23;26.20;;;7.70;99.90;;;;;;4792148;29;20436;-62
2024/03/10 01:40:23;;;;;;;30.80;27.17;;;7.80;99.90;;;;;;4807443;29;20234;-62
2024/03/10 01:42:55;;;;;;;30.73;27.10;;;7.80;99.90;;;;;;4785640;29;20226;-62
2024/03/10 01:45:22;;;;;;;30.77;27.50;;;7.80;99.90;;;;;;4784950;29;20597;-62
2024/03/10 01:47:48;;;;;;;32.00;27.40;;;7.80;99.90;;;;;;4792183;29;20448;-63
2024/03/10 01:50:15;;;;;;;30.20;26.97;;;7.80;99.90;;;;;;4785744;29;21703;-62
2024/03/10 01:52:41;;;;;;;31.20;25.57;;;7.80;74.50;;;;;;4792274;29;20448;-62
2024/03/10 01:55:08;;;;;;;28.70;25.70;;;7.80;95.00;;;;;;4786496;29;20428;-63
2024/03/10 01:57:35;;;;;;;30.47;26.77;;;7.80;99.90;;;;;;4783364;29;20586;-62
2024/03/10 02:00:05;;;;;;;32.53;26.20;;;7.80;99.90;;;;;;4791940;29;20484;-62
2024/03/10 02:02:31;;;;;;;30.67;26.33;;;7.80;99.90;;;;;;4783300;29;20997;-62
2024/03/10 02:05:00;;;;;;;31.10;26.73;;;7.80;99.90;;;;;;4787193;29;20438;-62
2024/03/10 02:07:26;;;;;;;29.67;26.47;;;7.80;99.90;;;;;;4789380;29;20432;-63
2024/03/10 02:09:52;;;;;;;31.20;26.80;;;7.70;99.90;;;;;;4787199;29;20508;-62
2024/03/10 02:12:20;;;;;;;29.30;25.10;;;7.80;99.90;;;;;;4791361;29;20214;-62
2024/03/10 02:15:02;;;;;;;29.57;26.33;;;7.80;99.90;;;;;;4787867;29;20931;-63
2024/03/10 02:17:28;;;;;;;29.70;26.00;;;7.70;99.90;;;;;;4785794;29;20429;-61
2024/03/10 02:19:57;;;;;;;30.97;26.90;;;7.70;99.90;;;;;;4790956;29;20482;-63
2024/03/10 02:22:24;;;;;;;31.63;26.10;;;7.70;99.90;;;;;;4787694;29;21328;-63
2024/03/10 02:24:54;;;;;;;29.97;26.73;;;7.70;1.00;;;;;;4794186;29;20439;-63
2024/03/10 02:27:21;;;;;;;29.53;26.17;;;7.70;1.00;;;;;;4789324;29;20424;-63
2024/03/10 02:48:55;;;;;;;28.90;25.90;;;7.60;1.00;;;;;;4794939;29;20527;-62
2024/03/10 02:51:21;;;;;;;27.97;24.80;;;7.50;1.00;;;;;;4782257;29;20447;-63
2024/03/10 02:53:47;;;;;;;29.53;26.47;;;7.60;1.00;;;;;;4796443;29;20210;-62
2024/03/10 02:56:13;;;;;;;29.00;25.70;;;7.50;1.00;;;;;;4794551;29;20230;-62
2024/03/10 02:58:39;;;;;;;28.03;25.03;;;7.60;1.00;;;;;;4789140;29;20286;-62
2024/03/10 03:01:09;;;;;;;26.20;23.50;;;7.60;1.00;;;;;;4786222;29;20913;-62
2024/03/10 03:03:35;;;;;;;29.43;25.13;;;7.50;1.00;;;;;;4786208;29;20439;-62
2024/03/10 03:06:01;;;;;;;32.17;25.53;;;7.60;1.00;;;;;;4779011;29;20489;-44
2024/03/10 03:08:26;;;;;;;29.83;25.30;;;7.60;1.00;;;;;;4785244;29;20273;-46
2024/03/10 03:11:12;;;;;;;28.60;24.77;;;7.60;1.00;;;;;;4785415;29;21723;-51
2024/03/10 03:13:38;;;;;;;28.47;24.60;;;7.60;1.00;;;;;;4774843;30;20235;-44
2024/03/10 03:16:04;;;;;;;28.37;24.93;;;7.60;1.00;;;;;;4774940;30;20444;-46
2024/03/10 03:18:31;;;;;;;27.40;24.40;;;7.60;1.00;;;;;;4775242;30;20202;-52
2024/03/10 03:20:57;;;;;;;29.60;23.90;;;7.60;1.00;;;;;;4775198;29;20540;-48
2024/03/10 03:23:22;;;;;;;29.70;25.90;;;7.50;99.90;;;;;;4774902;30;20437;-50
2024/03/10 03:25:49;;;;;;;28.90;25.83;;;7.50;99.90;;;;;;4775011;30;20877;-44
2024/03/10 03:28:15;;;;;;;27.27;24.37;;;7.50;99.90;;;;;;4774157;30;20195;-47
2024/03/10 03:30:42;;;;;;;34.17;24.90;;;7.60;99.90;;;;;;4774724;29;20448;-46
2024/03/10 03:33:09;;;;;;;27.20;24.37;;;7.60;5.70;;;;;;4774849;29;21241;-49
2024/03/10 03:35:37;;;;;;;30.40;25.17;;;7.60;1.00;;;;;;4774321;30;20443;-46
2024/03/10 03:38:03;;;;;;;28.73;25.73;;;7.50;99.90;;;;;;4774986;30;20448;-49
2024/03/10 03:40:29;;;;;;;28.37;25.37;;;7.50;99.90;;;;;;4774735;30;21091;-48
2024/03/10 03:42:55;;;;;;;26.97;24.20;;;7.50;99.90;;;;;;4774193;30;21046;-46
2024/03/10 03:45:22;;;;;;;28.57;25.37;;;7.50;1.00;;;;;;4775081;30;20449;-49
2024/03/10 03:47:48;;;;;;;28.20;25.00;;;7.50;1.00;;;;;;4774515;30;20205;-45
2024/03/10 03:50:15;;;;;;;27.70;24.47;;;7.50;1.00;;;;;;4775079;30;20449;-49
2024/03/10 03:52:41;;;;;;;30.50;26.70;;;7.50;1.00;;;;;;4774136;29;20457;-47
2024/03/10 03:55:07;;;;;;;32.07;25.90;;;7.40;1.00;;;;;;4774566;30;20445;-46
2024/03/10 03:57:33;;;;;;;28.40;25.13;;;7.40;1.00;;;;;;4774522;30;20484;-47
2024/03/10 03:59:59;;;;;;;28.73;25.63;;;7.40;99.90;;;;;;4774687;30;20522;-47
2024/03/10 04:02:27;;;;;;;30.77;24.17;;;7.40;99.90;;;;;;4772022;29;20454;-48
2024/03/10 04:04:53;;;;;;;28.83;25.00;;;7.50;99.90;;;;;;4774118;29;20986;-45
2024/03/10 04:07:19;;;;;;;28.50;25.47;;;7.40;99.90;;;;;;4774538;30;20440;-47
2024/03/10 04:09:45;;;;;;;27.90;24.83;;;7.40;99.90;;;;;;4777005;29;20444;-49
2024/03/10 04:12:11;;;;;;;28.77;25.63;;;7.40;99.90;;;;;;4786858;29;20666;-49
2024/03/10 04:14:40;;;;;;;32.10;26.27;;;7.40;99.90;;;;;;4790359;29;20230;-46
2024/03/10 04:17:06;;;;;;;27.73;24.50;;;7.40;99.90;;;;;;4787430;29;20206;-62
2024/03/10 04:19:32;;;;;;;29.80;25.97;;;7.40;1.00;;;;;;4788292;29;20904;-44
2024/03/10 04:21:57;;;;;;;29.27;26.13;;;7.40;99.90;;;;;;4788827;29;20255;-45
2024/03/10 04:24:23;;;;;;;31.33;26.77;;;7.40;1.00;;;;;;4794328;29;20277;-45
2024/03/10 04:26:49;;;;;;;29.57;26.20;;;7.40;1.00;;;;;;4789331;29;20191;-46
2024/03/10 04:29:15;;;;;;;30.60;25.90;;;7.40;1.00;;;;;;4787984;29;20247;-48
2024/03/10 04:31:41;;;;;;;28.77;25.67;;;7.40;1.00;;;;;;4786700;29;20433;-48
2024/03/10 04:34:09;;;;;;;28.30;24.60;;;7.30;1.00;;;;;;4788358;29;20472;-48
2024/03/10 04:36:34;;;;;;;29.83;26.67;;;7.30;35.50;;;;;;4787312;29;20508;-48
2024/03/10 04:39:00;;;;;;;29.87;26.63;;;7.30;65.20;;;;;;4793026;29;20452;-47
2024/03/10 04:41:27;;;;;;;31.90;25.67;;;7.30;1.00;;;;;;4783839;29;20215;-49
2024/03/10 04:43:53;;;;;;;30.40;26.90;;;7.30;1.00;;;;;;4790600;29;20255;-50
2024/03/10 04:46:19;;;;;;;30.43;25.53;;;7.30;1.00;;;;;;4790089;29;20437;-44
2024/03/10 04:48:48;;;;;;;28.77;25.43;;;7.30;39.80;;;;;;4786952;29;20274;-45
2024/03/10 04:51:15;;;;;;;27.80;24.70;;;7.30;99.90;;;;;;4791456;29;20252;-44
2024/03/10 04:53:42;;;;;;;30.27;26.10;;;7.30;27.50;;;;;;4787194;29;21387;-44
2024/03/10 04:56:09;;;;;;;29.93;25.40;;;7.30;1.00;;;;;;4791896;29;20440;-45
2024/03/10 04:58:35;;;;;;;27.57;24.57;;;7.30;27.90;;;;;;4800368;29;20454;-49
2024/03/10 05:01:00;;;;;;;29.77;25.20;;;7.30;99.90;;;;;;4793739;29;20471;-47
2024/03/10 05:03:28;;;;;;;28.20;25.00;;;7.30;99.90;;;;;;4780716;29;20187;-47
2024/03/10 05:05:54;;;;;;;27.40;24.50;;;7.30;99.90;;;;;;4785439;29;20234;-45
2024/03/10 05:08:19;;;;;;;29.43;25.30;;;7.20;1.00;;;;;;4792557;29;20432;-49
2024/03/10 05:10:45;;;;;;;31.43;26.70;;;7.20;83.10;;;;;;4794084;29;20550;-46
2024/03/10 05:13:10;;;;;;;33.93;26.90;;;7.20;99.90;;;;;;4781667;29;20201;-46
2024/03/10 05:15:36;;;;;;;29.90;25.70;;;7.20;99.90;;;;;;4793836;29;20198;-46
2024/03/10 05:18:02;;;;;;;28.13;25.13;;;7.20;1.00;;;;;;4785862;29;20241;-49
2024/03/10 05:20:27;;;;;;;31.77;26.00;;;7.20;99.90;;;;;;4788833;29;20231;-46
2024/03/10 05:22:53;;;;;;;30.37;26.90;;;7.20;1.00;;;;;;4781618;29;20206;-48
2024/03/10 05:25:19;;;;;;;29.53;24.90;;;7.20;1.00;;;;;;4777713;29;20281;-48
2024/03/10 05:27:45;;;;;;;34.13;26.60;;;7.20;1.00;;;;;;4778613;29;20271;-48
2024/03/10 05:30:11;;;;;;;29.43;25.83;;;7.20;99.90;;;;;;4793505;29;20432;-45
2024/03/10 05:32:37;;;;;;;29.33;26.23;;;7.20;99.90;;;;;;4785623;29;20657;-48
2024/03/10 05:35:05;;;;;;;28.87;25.37;;;7.30;99.90;;;;;;4793567;29;20436;-49
2024/03/10 05:37:32;;;;;;;30.40;26.60;;;7.20;99.90;;;;;;4783565;29;20663;-44
2024/03/10 05:39:58;;;;;;;34.20;27.37;;;7.30;99.90;;;;;;4793489;29;20487;-48
2024/03/10 05:42:23;;;;;;;29.70;26.10;;;7.20;99.90;;;;;;4788965;29;20446;-63
2024/03/10 05:44:49;;;;;;;28.33;25.23;;;7.20;99.90;;;;;;4789608;29;20197;-62
2024/03/10 05:47:14;;;;;;;28.93;25.47;;;7.30;99.90;;;;;;4782074;29;20215;-63
2024/03/10 05:49:40;;;;;;;31.30;26.00;;;7.20;99.90;;;;;;4789695;29;20190;-62
2024/03/10 05:52:07;;;;;;;33.90;27.57;;;7.20;1.00;;;;;;4792400;29;20198;-62
2024/03/10 05:54:33;;;;;;;31.50;26.10;;;7.30;1.00;;;;;;4789322;29;20297;-63
2024/03/10 05:56:59;;;;;;;29.50;26.23;;;7.20;1.00;;;;;;4796338;29;20794;-62
2024/03/10 05:59:25;;;;;;;30.00;26.83;;;7.30;1.00;;;;;;4785923;29;20436;-65
2024/03/10 06:01:50;;;;;;;30.80;26.80;;;7.30;1.00;;;;;;4790101;29;20237;-63
2024/03/10 06:04:16;;;;;;;29.87;26.77;;;7.30;1.00;;;;;;4790179;29;20588;-63
2024/03/10 06:06:42;;;;;;;29.27;26.07;;;7.30;99.90;;;;;;4792095;29;20242;-66
2024/03/10 06:09:08;;;;;;;30.90;25.80;;;7.40;99.90;;;;;;4785882;29;20455;-63
2024/03/10 06:11:33;;;;;;;29.63;26.00;;;7.40;99.90;;;;;;4796689;29;20674;-63
2024/03/10 06:13:59;;;;;;;29.63;26.27;;;7.40;99.90;;;;;;4793945;29;21028;-63
2024/03/10 06:16:25;;;;;;;28.13;25.13;;;7.50;47.60;;;;;;4789377;29;20701;-62
2024/03/10 06:26:56;;;;;;;28.77;25.77;;;7.70;1.00;;;;;;4795787;29;20454;-62
2024/03/10 06:29:22;;;;;;;29.17;26.17;;;7.90;99.90;;;;;;4796163;29;20506;-62
2024/03/10 06:31:48;;;;;;;27.17;24.40;;;7.90;99.90;;;;;;4786660;29;20206;-62
2024/03/10 06:34:14;;;;;;;28.30;25.40;;;8.00;1.00;;;;;;4781455;29;21209;-62
2024/03/10 06:36:40;;;;;;;29.87;25.63;;;8.00;1.00;;;;;;4796366;29;20202;-61
2024/03/10 06:39:08;;;;;;;28.33;25.20;;;8.10;99.90;;;;;;4787378;29;20203;-62
2024/03/10 06:41:34;;;;;;;27.47;24.60;;;8.10;99.90;;;;;;4794348;29;21585;-61
2024/03/10 06:44:06;;;;;;;28.40;25.47;;;8.20;40.30;;;;;;4787310;29;20436;-62
2024/03/10 06:46:32;;;;;;;29.73;25.20;;;8.30;1.00;;;;;;4786495;29;20443;-62
2024/03/10 06:48:57;;;;;;;27.33;24.70;;;8.30;1.00;;;;;;4791232;29;20436;-62
2024/03/10 06:51:24;;;;;;;26.17;23.60;;;8.30;1.00;;;;;;4795180;29;20269;-63
2024/03/10 06:53:50;;;;;;;28.00;24.23;;;8.40;99.90;;;;;;4789084;29;20255;-63
2024/03/10 06:56:15;;;;;;;27.80;24.80;;;8.50;93.10;;;;;;4779540;29;20459;-61
2024/03/10 06:58:50;;;;;;;27.57;24.63;;;8.60;1.00;;;;;;4791142;29;20451;-62
2024/03/10 07:01:16;;;;;;;28.00;25.00;;;8.60;1.00;;;;;;4791970;29;20222;-62
2024/03/10 07:03:41;;;;;;;27.17;24.47;;;8.80;99.90;;;;;;4781663;29;20796;-61
2024/03/10 07:06:07;;;;;;;26.23;23.50;;;8.90;99.90;;;;;;4779875;29;20291;-62
2024/03/10 07:08:33;;;;;;;27.33;24.50;;;9.00;1.80;;;;;;4791524;29;20342;-63
2024/03/10 07:10:59;;;;;;;28.03;25.07;;;9.10;1.00;;;;;;4780824;29;20252;-56
2024/03/10 07:13:25;;;;;;;26.30;23.60;;;9.20;1.00;;;;;;4785869;29;20654;-61
2024/03/10 07:15:53;;;;;;;26.43;23.83;;;9.20;1.00;;;;;;4782140;29;20507;-61
2024/03/10 07:18:18;;;;;;;27.20;24.10;;;9.40;1.00;;;;;;4782978;29;20453;-61
2024/03/10 07:20:44;;;;;;;25.70;23.10;;;9.50;99.90;;;;;;4788576;29;20590;-61
2024/03/10 07:23:10;;;;;;;27.67;24.40;;;9.50;99.90;;;;;;4789673;29;21051;-61
2024/03/10 07:25:35;;;;;;;25.70;23.30;;;9.60;1.50;;;;;;4785059;29;20191;-61
2024/03/10 07:28:01;;;;;;;26.47;23.77;;;9.70;1.00;;;;;;4783628;29;20968;-61
2024/03/10 07:30:26;;;;;;;25.07;22.60;;;9.80;1.00;;;;;;4784684;29;20203;-62
2024/03/10 07:32:53;;;;;;;24.93;22.70;;;9.90;1.00;;;;;;4785951;29;21025;-62
2024/03/10 07:35:21;;;;;;;25.40;22.80;;;10.00;1.00;;;;;;4790456;29;20400;-62
2024/03/10 07:37:47;;;;;;;25.57;23.10;;;10.10;1.00;;;;;;4780558;29;20448;-61
2024/03/10 07:40:19;;;;;;;26.17;23.67;;;10.20;99.90;;;;;;4784896;29;20529;-62
2024/03/10 07:42:46;;;;;;;24.63;22.33;;;10.30;99.90;;;;;;4785701;29;20448;-62
2024/03/10 07:45:12;;;;;;;25.63;23.07;;;10.40;99.90;;;;;;4788133;29;20485;-62
2024/03/10 07:47:42;;;;;;;25.90;23.40;;;10.50;99.90;;;;;;4787808;29;20516;-62
2024/03/10 07:50:10;;;;;;;25.00;22.83;;;10.70;99.90;;;;;;4788079;29;20197;-60
2024/03/10 07:52:37;;;;;;;24.73;22.33;;;10.70;99.90;;;;;;4780178;29;20453;-60
2024/03/10 07:55:05;;;;;;;24.57;22.27;;;10.80;99.90;;;;;;4790100;29;20455;-61
2024/03/10 07:57:35;;;;;;;24.73;22.43;;;10.90;99.90;;;;;;4784096;29;20489;-56
2024/03/10 08:00:05;;;;;;;24.10;22.00;;;10.90;99.90;;;;;;4782966;29;20880;-60
2024/03/10 08:02:31;;;;;;;23.70;21.40;;;10.90;66.30;;;;;;4780347;29;20437;-62
2024/03/10 08:04:57;;;;;;;24.33;22.17;;;11.00;49.40;;;;;;4784863;29;20464;-62
2024/03/10 08:07:23;;;;;;;23.73;21.53;;;11.00;22.60;;;;;;4775387;29;20444;-62
2024/03/10 08:09:49;;;;;;;24.20;22.00;;;11.00;17.90;;;;;;4785088;29;20449;-62
2024/03/10 08:12:15;;;;;;;25.20;22.80;;;11.10;12.20;;;;;;4791623;29;21110;-62
2024/03/10 08:14:41;;;;;;;25.30;22.80;;;11.20;1.00;;;;;;4786031;29;20433;-61
2024/03/10 08:17:07;;;;;;;24.50;22.20;;;11.10;1.00;;;;;;4780700;29;20191;-61
2024/03/10 08:19:32;;;;;;;24.93;22.63;;;11.20;1.00;;;;;;4784367;29;20707;-61
2024/03/10 08:21:58;;;;;;;25.07;22.87;;;11.30;1.00;;;;;;4786920;29;20215;-60
2024/03/10 08:24:26;;;;;;;25.53;23.10;;;11.40;1.00;;;;;;4777181;29;20248;-60
2024/03/10 08:26:51;;;;;;;25.03;22.77;;;11.40;1.00;;;;;;4791295;29;20432;-60
2024/03/10 08:29:17;;;;;;;24.83;22.57;;;11.50;1.00;;;;;;4788139;29;20443;-60
2024/03/10 08:31:43;;;;;;;24.20;22.10;;;11.60;1.00;;;;;;4789470;29;20587;-60
2024/03/10 08:34:09;;;;;;;24.40;22.30;;;11.70;1.00;;;;;;4786566;29;20435;-60
2024/03/10 08:36:36;;;;;;;23.80;21.70;;;11.70;1.00;;;;;;4789829;29;20420;-59
2024/03/10 08:39:07;;;;;;;24.53;22.27;;;11.80;1.00;;;;;;4787661;29;20685;-55
2024/03/10 08:41:34;;;;;;;24.70;22.37;;;11.70;1.00;;;;;;4784387;29;21249;-58
2024/03/10 08:44:01;;;;;;;23.33;21.37;;;11.80;1.00;;;;;;4781072;29;20943;-59
2024/03/10 08:46:27;;;;;;;23.43;21.33;;;11.80;1.00;;;;;;4781548;29;20449;-58
2024/03/10 08:48:53;;;;;;;23.30;21.20;;;11.80;1.00;;;;;;4781489;29;20445;-58
2024/03/10 08:51:19;;;;;;;26.77;24.33;;;11.70;1.00;;;;;;4788216;29;20424;-60
2024/03/10 08:53:44;;;;;;;23.93;21.67;;;11.70;1.00;;;;;;4788582;29;20436;-56
2024/03/10 08:56:10;;;;;;;24.43;22.27;;;11.70;1.00;;;;;;4789803;29;20927;-59
2024/03/10 08:58:37;;;;;;;23.70;21.70;;;11.80;1.00;;;;;;4784134;29;20753;-60
2024/03/10 09:01:04;;;;;;;23.83;21.70;;;11.80;1.00;;;;;;4790819;29;20221;-59
2024/03/10 09:03:32;;;;;;;23.77;21.63;;;11.80;1.00;;;;;;4786159;29;20479;-58
2024/03/10 09:05:58;;;;;;;23.93;21.83;;;11.90;1.00;;;;;;4783984;29;20515;-59
2024/03/10 09:08:24;;;;;;;24.57;22.40;;;12.00;1.00;;;;;;4787812;29;20473;-59
2024/03/10 09:10:50;;;;;;;23.57;21.47;;;12.00;1.00;;;;;;4781866;29;20468;-58
2024/03/10 09:13:16;;;;;;;24.17;22.03;;;11.90;1.00;;;;;;4781439;29;20655;-60
2024/03/10 09:15:43;;;;;;;23.53;21.37;;;11.90;1.00;;;;;;4787898;29;20436;-58
2024/03/10 09:18:08;;;;;;;23.70;21.43;;;11.90;1.00;;;;;;4784474;29;20488;-60
2024/03/10 09:20:34;;;;;;;24.73;22.53;;;11.90;1.00;;;;;;4777318;29;21070;-59
2024/03/10 09:23:01;;;;;;;24.00;21.77;;;11.90;1.00;;;;;;4780371;29;20199;-56
2024/03/10 09:25:30;;;;;;;23.80;21.70;;;12.10;1.00;;;;;;4790917;29;20440;-59
2024/03/10 09:27:56;;;;;;;24.57;22.43;;;12.10;1.00;;;;;;4778494;29;20424;-58
2024/03/10 09:30:23;;;;;;;24.53;22.17;;;12.30;1.00;;;;;;4786295;29;20515;-56
2024/03/10 09:32:50;;;;;;;21.40;19.50;;;12.60;1.00;;;;;;4780590;29;20464;-58
2024/03/10 09:35:23;;;;;;;23.17;21.17;;;12.90;1.00;;;;;;4780093;29;21014;-58
2024/03/10 09:37:50;;;;;;;23.67;21.73;;;13.20;1.00;;;;;;4778329;29;20436;-58
2024/03/10 09:40:16;;;;;;;22.63;20.63;;;13.30;1.00;;;;;;4782539;29;21484;-55
2024/03/10 09:42:42;;;;;;;24.40;22.10;;;13.60;1.00;;;;;;4778549;29;20445;-58
2024/03/10 09:45:15;;;;;;;23.30;21.37;;;14.00;1.00;;;;;;4781830;29;20494;-49
2024/03/10 09:47:44;;;;;;;23.30;21.40;;;14.20;1.00;;;;;;4785938;29;21119;-46
2024/03/10 09:50:11;;;;;;;23.33;21.43;;;14.30;1.00;;;;;;4783548;29;20436;-46
2024/03/10 09:52:38;;;;;;;23.30;21.50;;;14.50;1.00;;;;;;4790877;29;20449;-47
2024/03/10 09:55:06;;;;;;;23.40;21.60;;;14.40;1.00;;;;;;4777349;29;20863;-50
2024/03/10 09:57:34;;;;;;;25.23;22.93;;;14.30;1.00;;;;;;4780552;29;20489;-47
2024/03/10 10:00:12;;;;;;;23.90;21.57;;;14.10;1.00;;;;;;4779776;29;20425;-47
2024/03/10 10:02:42;;;;;;;21.67;19.97;;;14.10;1.00;;;;;;4779670;29;20452;-45
2024/03/10 10:05:32;;;;;;;23.63;21.70;;;14.10;1.00;;;;;;4780435;29;20480;-47
2024/03/10 10:07:58;;;;;;;23.57;21.47;;;14.10;1.00;;;;;;4780108;29;20834;-48
2024/03/10 10:10:25;;;;;;;23.10;21.20;;;14.30;1.00;;;;;;4783786;29;20449;-48
2024/03/10 10:12:53;;;;;;;22.07;20.17;;;14.60;1.00;;;;;;4781869;29;20488;-59
2024/03/10 10:15:22;;;;;;;21.87;20.07;;;15.00;1.00;;;;;;4788166;29;20947;-56
2024/03/10 10:17:55;;;;;;;22.30;20.40;;;15.70;1.00;;;;;;4780503;29;20476;-60
2024/03/10 10:20:25;;;;;;;22.27;20.47;;;16.40;99.90;;;;;;4783620;29;20483;-47
2024/03/10 10:23:00;;;;;;;22.30;20.50;;;17.20;99.90;;;;;;4778781;29;20436;-46
2024/03/10 10:25:29;;;;;;;21.50;19.77;;;18.10;99.90;;;;;;4792944;29;20438;-46
2024/03/10 10:27:56;;;;;;;22.70;20.70;;;18.60;99.90;;;;;;4783439;29;21224;-50
2024/03/10 10:30:25;;;;;;;22.07;20.40;;;18.40;99.90;;;;;;4790745;29;20444;-48
2024/03/10 10:33:08;;;;;;;21.90;20.27;;;18.40;99.90;;;;;;4777969;29;20881;-48
2024/03/10 10:35:39;;;;;;;21.80;20.30;;;18.20;99.90;;;;;;4785639;29;20531;-48
2024/03/10 10:38:12;;;;;;;21.33;19.63;;;18.20;99.90;;;;;;4780950;29;20465;-51
2024/03/10 10:40:41;;;;;;;22.37;20.57;;;18.10;99.90;;;;;;4787314;29;20471;-46
2024/03/10 10:43:09;;;;;;;23.00;21.00;;;18.00;99.90;;;;;;4787882;29;20858;-47
2024/03/10 10:45:35;;;;;;;21.87;20.27;;;18.00;99.90;;;;;;4787262;29;21674;-50
2024/03/10 10:48:01;;;;;;;21.80;20.10;;;19.30;99.90;;;;;;4793509;29;20469;-47
2024/03/10 10:50:33;;;;;;;21.60;19.90;;;19.30;99.90;;;;;;4791652;29;20459;-47
2024/03/10 10:53:00;;;;;;;21.47;19.87;;;20.30;99.90;;;;;;4780185;29;20437;-45
2024/03/10 10:55:28;;;;;;;19.90;18.43;;;21.00;99.90;;;;;;4779426;29;20436;-48
2024/03/10 10:58:06;;;;;;;20.63;19.03;;;20.90;99.90;;;;;;4794851;29;20424;-49
2024/03/10 11:00:32;;;;;;;20.60;19.10;;;21.00;99.90;;;;;;4788232;29;20508;-44
2024/03/10 11:03:13;;;;;;;19.70;18.20;;;21.60;99.90;;;;;;4782244;29;20471;-47
2024/03/10 11:05:40;;;;;;;21.00;19.50;;;21.60;99.90;;;;;;4785779;29;21061;-47
2024/03/10 11:08:06;;;;;;;21.60;20.07;;;21.40;99.90;;;;;;4782916;29;20452;-47
2024/03/10 11:10:46;;;;;;;22.60;20.90;;;20.80;99.90;;;;;;4786540;29;20440;-51
2024/03/10 11:13:13;;;;;;;22.63;20.83;;;19.40;99.90;;;;;;4786363;29;20186;-51
2024/03/10 11:15:39;;;;;;;22.90;21.30;;;19.50;99.90;;;;;;4791907;29;20435;-53
2024/03/10 11:18:28;;;;;;;24.53;22.60;;;19.50;99.90;;;;;;4781933;29;20433;-47
2024/03/10 11:20:58;;;;;;;22.80;20.90;;;20.10;99.90;;;;;;4788266;29;20475;-48
2024/03/10 11:23:36;;;;;;;22.23;20.73;;;20.30;99.90;;;;;;4790691;29;20572;-51
2024/03/10 11:26:05;;;;;;;21.60;20.03;;;20.70;99.90;;;;;;4783457;29;21242;-49
2024/03/10 11:28:52;;;;;;;23.47;21.77;;;21.00;99.90;;;;;;4784160;29;20437;-47
2024/03/10 11:31:37;;;;;;;22.87;21.17;;;21.50;99.90;;;;;;4784747;29;20459;-49
2024/03/10 11:34:05;;;;;;;23.30;21.70;;;21.50;99.90;;;;;;4782983;29;20450;-47
2024/03/10 11:36:38;;;;;;;23.70;21.90;;;21.40;99.90;;;;;;4791505;29;20467;-49
2024/03/10 11:39:07;;;;;;;23.30;21.60;;;22.20;99.90;;;;;;4782960;29;20831;-48
2024/03/10 11:41:33;;;;;;;21.93;20.43;;;22.40;99.90;;;;;;4782446;29;20491;-50
2024/03/10 11:43:59;;;;;;;21.10;19.67;;;23.00;99.90;;;;;;4784538;29;20915;-46
2024/03/10 11:46:26;;;;;;;22.67;21.03;;;23.00;99.90;;;;;;4789909;29;20424;-47
2024/03/10 11:48:53;;;;;;;23.80;22.27;;;22.80;99.90;;;;;;4790131;29;21480;-47
2024/03/10 11:51:24;;;;;;;23.63;22.03;;;21.80;99.90;;;;;;4789335;29;20953;-46
2024/03/10 11:53:51;;;;;;;23.07;21.40;;;20.60;99.90;;;;;;4784210;29;20439;-47
2024/03/10 11:56:17;;;;;;;23.10;21.30;;;19.80;99.90;;;;;;4783792;29;21041;-48
2024/03/10 11:58:46;;;;;;;22.90;21.30;;;18.70;99.90;;;;;;4778328;29;20537;-48
2024/03/10 12:01:12;;;;;;;23.67;21.97;;;18.30;99.90;;;;;;4781851;29;20846;-49
2024/03/10 12:03:41;;;;;;;25.83;23.63;;;17.80;99.90;;;;;;4778599;29;20961;-50
2024/03/10 12:06:09;;;;;;;23.90;21.87;;;17.30;99.90;;;;;;4777637;29;20477;-45
2024/03/10 12:08:38;;;;;;;22.67;20.90;;;17.00;99.90;;;;;;4780282;29;20425;-47
2024/03/10 12:11:05;;;;;;;23.00;21.30;;;17.00;99.90;;;;;;4786510;29;20435;-49
2024/03/10 12:13:32;;;;;;;23.10;21.20;;;16.90;99.90;;;;;;4781622;29;20485;-48
2024/03/10 12:16:07;;;;;;;23.10;21.30;;;16.90;99.90;;;;;;4777540;29;20463;-48
2024/03/10 12:18:35;;;;;;;22.80;21.00;;;16.80;99.90;;;;;;4778884;29;21317;-52
2024/03/10 12:21:01;;;;;;;23.13;21.20;;;16.60;99.90;;;;;;4782052;29;20506;-50
2024/03/10 12:23:34;;;;;;;23.53;21.80;;;16.20;99.90;;;;;;4780386;29;20456;-46
2024/03/10 12:26:05;;;;;;;22.70;20.80;;;16.00;99.90;;;;;;4782947;29;20444;-46
2024/03/10 12:28:31;;;;;;;23.47;21.57;;;16.00;99.90;;;;;;4782439;29;21435;-45
2024/03/10 12:31:01;;;;;;;24.20;22.27;;;16.00;99.90;;;;;;4779450;29;20452;-49
2024/03/10 12:33:27;;;;;;;23.57;21.77;;;15.50;99.90;;;;;;4779684;29;20194;-49
2024/03/10 12:35:53;;;;;;;24.03;22.10;;;15.20;99.90;;;;;;4805780;29;20924;-44
2024/03/10 12:38:18;;;;;;;23.40;21.60;;;15.30;99.90;;;;;;4779128;29;20412;-46
2024/03/10 12:40:44;;;;;;;23.90;22.07;;;15.40;99.90;;;;;;4789404;29;21042;-49
2024/03/10 12:43:11;;;;;;;23.70;21.43;;;15.40;99.90;;;;;;4789678;29;20194;-44
2024/03/10 12:45:38;;;;;;;24.90;22.80;;;15.20;99.90;;;;;;4780707;29;20196;-47
2024/03/10 12:48:06;;;;;;;23.90;21.80;;;15.10;99.90;;;;;;4778540;29;20870;-47
2024/03/10 12:50:32;;;;;;;24.20;22.13;;;15.30;99.90;;;;;;4793332;29;20489;-46
2024/03/10 12:53:01;;;;;;;23.07;21.27;;;15.40;99.90;;;;;;4791715;29;20999;-48
2024/03/10 12:55:27;;;;;;;23.53;21.63;;;15.40;99.90;;;;;;4781417;29;20421;-46
2024/03/10 12:57:54;;;;;;;23.37;21.53;;;15.40;99.90;;;;;;4786160;29;21271;-47
2024/03/10 13:00:23;;;;;;;24.20;22.20;;;15.50;99.90;;;;;;4779210;29;20246;-48
2024/03/10 13:02:52;;;;;;;23.73;21.83;;;15.50;99.90;;;;;;4790626;29;20789;-51